Time;durP1;ratioP1;P1;durP2;ratioP2;P2;SDS_P1;SDS_P2;PMS_P1;PMS_P2;Temp;Humidity;BMP_temperature;BMP_pressure;BME280_temperature;BME280_humidity;BME280_pressure;Samples;Min_cycle;Max_cycle;Signal;HPM_P1;HPM_P2
2022/01/15 00:02:18;;;;;;;53.70;23.95;;;;;;;5.17;100.00;103001.25;5003489;28;20029;-73
2022/01/15 00:04:44;;;;;;;61.15;24.13;;;;;;;5.17;100.00;102972.44;4997595;28;20037;-73
2022/01/15 00:07:09;;;;;;;57.72;23.13;;;;;;;5.28;100.00;102998.34;4994279;28;20407;-74
2022/01/15 00:09:36;;;;;;;60.85;23.83;;;;;;;4.72;100.00;102954.53;4996654;28;20358;-74
2022/01/15 00:12:02;;;;;;;57.67;23.50;;;;;;;4.71;100.00;102918.81;4994690;28;20057;-74
2022/01/15 00:14:37;;;;;;;58.17;22.52;;;;;;;4.76;100.00;102941.31;4996541;28;20030;-74
2022/01/15 00:17:18;;;;;;;55.88;23.58;;;;;;;4.79;100.00;102990.09;4994952;28;20117;-74
2022/01/15 00:22:19;;;;;;;56.85;22.17;;;;;;;5.02;100.00;102972.00;5138598;23;20390;-74
2022/01/15 00:24:46;;;;;;;59.67;22.60;;;;;;;5.18;100.00;102974.19;4976802;28;20031;-74
2022/01/15 00:27:13;;;;;;;57.00;22.02;;;;;;;5.20;100.00;102986.31;4959604;28;20105;-74
2022/01/15 00:29:39;;;;;;;60.13;22.90;;;;;;;4.52;100.00;102921.94;4943179;28;20089;-75
2022/01/15 00:32:08;;;;;;;56.55;22.40;;;;;;;4.54;100.00;102914.91;4959094;28;20484;-75
2022/01/15 00:34:34;;;;;;;53.00;22.10;;;;;;;4.77;100.00;102934.34;4958453;28;20473;-73
2022/01/15 00:37:00;;;;;;;53.03;20.55;;;;;;;4.78;100.00;102964.84;4976063;28;20034;-74
2022/01/15 00:39:27;;;;;;;53.88;22.05;;;;;;;4.68;100.00;102935.44;4943910;28;20022;-74
2022/01/15 00:41:53;;;;;;;55.20;21.17;;;;;;;4.76;100.00;102957.00;4945661;28;20046;-75
2022/01/15 00:44:19;;;;;;;49.88;19.20;;;;;;;4.91;100.00;102979.31;4947738;28;20481;-74
2022/01/15 00:46:44;;;;;;;52.35;20.80;;;;;;;4.66;100.00;102936.41;4965139;28;20042;-74
2022/01/15 00:49:10;;;;;;;47.55;19.17;;;;;;;4.45;100.00;102943.06;4948781;28;20065;-75
2022/01/15 00:51:37;;;;;;;50.22;19.45;;;;;;;4.57;100.00;102937.50;4965387;28;20084;-75
2022/01/15 00:54:03;;;;;;;50.53;19.60;;;;;;;4.44;100.00;102938.72;4967332;28;20027;-74
2022/01/15 00:56:29;;;;;;;57.00;20.88;;;;;;;4.59;100.00;102957.50;4985584;28;20045;-74
2022/01/15 00:58:55;;;;;;;54.17;20.73;;;;;;;4.39;100.00;102931.00;4953676;28;20030;-74
2022/01/15 01:01:21;;;;;;;52.60;20.90;;;;;;;4.65;100.00;102966.06;4964182;23;20066;-74
2022/01/15 01:03:48;;;;;;;51.63;19.85;;;;;;;4.39;100.00;102903.09;4991369;28;20464;-73
2022/01/15 01:06:15;;;;;;;45.70;18.65;;;;;;;4.44;100.00;102925.66;5007184;28;20070;-74
2022/01/15 01:08:41;;;;;;;44.58;17.80;;;;;;;4.38;100.00;102919.69;5009280;28;20025;-72
2022/01/15 01:11:16;;;;;;;49.75;18.80;;;;;;;4.62;100.00;102956.53;5008195;28;20052;-74
2022/01/15 01:24:26;;;;;;;46.67;15.95;;;;;;;4.34;100.00;102951.22;5001360;28;19968;-74
2022/01/15 01:32:01;;;;;;;42.42;15.90;;;;;;;4.64;100.00;102931.19;5003350;28;20177;-74
2022/01/15 01:34:29;;;;;;;43.10;16.48;;;;;;;4.55;100.00;102941.91;5019679;28;20457;-73
2022/01/15 01:39:38;;;;;;;45.42;18.10;;;;;;;4.41;100.00;102937.06;5017521;28;20030;-75
2022/01/15 01:42:11;;;;;;;41.97;16.70;;;;;;;4.42;100.00;102930.06;5000045;28;20506;-75
2022/01/15 01:44:42;;;;;;;48.70;18.30;;;;;;;4.36;100.00;102911.03;4998310;28;20029;-75
2022/01/15 01:47:30;;;;;;;39.97;16.83;;;;;;;4.35;100.00;102922.38;4996977;28;20021;-74
2022/01/15 01:49:56;;;;;;;39.95;15.85;;;;;;;3.98;100.00;102875.44;4996830;28;20033;-74
2022/01/15 01:52:22;;;;;;;38.83;16.27;;;;;;;4.35;100.00;102925.00;4997769;28;20034;-74
2022/01/15 01:54:47;;;;;;;39.85;15.55;;;;;;;4.06;100.00;102923.13;4997184;28;20072;-76
2022/01/15 01:57:13;;;;;;;41.40;15.60;;;;;;;4.28;100.00;102933.91;5013979;28;20053;-74
2022/01/15 01:59:38;;;;;;;41.25;15.40;;;;;;;4.34;100.00;102909.34;5013941;28;20026;-74
2022/01/15 02:02:04;;;;;;;37.05;15.60;;;;;;;4.64;100.00;102927.72;5013881;28;20046;-75
2022/01/15 02:04:30;;;;;;;35.05;14.43;;;;;;;4.24;100.00;102881.72;4980144;28;20038;-74
2022/01/15 02:06:58;;;;;;;39.20;14.80;;;;;;;4.27;100.00;102871.16;4980535;28;20561;-74
2022/01/15 02:09:24;;;;;;;38.97;15.45;;;;;;;3.88;100.00;102921.84;4996119;28;20026;-73
2022/01/15 02:11:50;;;;;;;41.35;15.48;;;;;;;4.29;100.00;102914.72;5014380;28;20030;-74
2022/01/15 02:14:30;;;;;;;36.83;14.48;;;;;;;4.36;100.00;102916.25;5018190;28;20032;-74
2022/01/15 02:16:58;;;;;;;82.05;32.53;;;;;;;4.30;100.00;102895.50;5021251;28;20018;-74
2022/01/15 02:19:32;;;;;;;36.47;15.65;;;;;;;4.44;100.00;102887.25;5003632;28;20080;-75
2022/01/15 02:24:42;;;;;;;35.47;13.17;;;;;;;4.08;100.00;102857.75;5018205;28;20467;-74
2022/01/15 02:27:07;;;;;;;34.63;13.50;;;;;;;3.98;100.00;102860.59;4985892;28;20030;-73
2022/01/15 02:29:33;;;;;;;31.42;13.00;;;;;;;4.14;100.00;102875.88;5017206;28;20026;-74
2022/01/15 02:31:59;;;;;;;34.25;13.52;;;;;;;4.08;100.00;102853.34;4983448;28;20163;-73
2022/01/15 02:34:27;;;;;;;29.05;12.68;;;;;;;4.28;100.00;102897.28;5000704;28;20033;-74
2022/01/15 02:36:53;;;;;;;34.33;13.13;;;;;;;4.13;100.00;102838.44;5004610;28;20037;-75
2022/01/15 02:39:18;;;;;;;32.13;12.85;;;;;;;4.18;100.00;102833.06;5006703;28;20026;-75
2022/01/15 02:41:44;;;;;;;31.85;13.40;;;;;;;4.15;100.00;102834.00;5003908;28;20037;-73
2022/01/15 02:44:16;;;;;;;35.53;13.65;;;;;;;4.49;100.00;102872.28;5003003;28;20026;-74
2022/01/15 02:49:35;;;;;;;37.65;13.52;;;;;;;4.21;100.00;102868.75;5000410;28;20495;-73
2022/01/15 02:52:01;;;;;;;32.85;13.00;;;;;;;4.06;100.00;102864.75;5004027;28;20030;-73
2022/01/15 02:54:26;;;;;;;30.02;11.80;;;;;;;4.00;100.00;102876.25;5033784;28;20022;-74
2022/01/15 02:56:52;;;;;;;29.17;11.43;;;;;;;3.94;100.00;102831.97;5004074;28;20049;-74
2022/01/15 02:59:27;;;;;;;27.42;11.10;;;;;;;4.10;100.00;102820.19;5006100;28;20310;-74
2022/01/15 03:01:52;;;;;;;25.92;10.30;;;;;;;4.31;100.00;102837.03;4987108;28;20183;-75
2022/01/15 03:04:19;;;;;;;25.35;10.35;;;;;;;4.07;100.00;102861.25;4999017;28;20034;-74
2022/01/15 03:06:45;;;;;;;26.42;10.18;;;;;;;4.02;100.00;102857.88;4981941;28;20407;-74
2022/01/15 03:09:10;;;;;;;26.02;10.57;;;;;;;4.20;100.00;102857.41;5016195;28;20030;-74
2022/01/15 03:11:36;;;;;;;22.15;9.35;;;;;;;3.75;100.00;102855.13;4971427;28;20027;-74
2022/01/15 03:14:02;;;;;;;21.75;8.90;;;;;;;3.52;100.00;102809.53;4995871;28;20027;-74
2022/01/15 03:16:28;;;;;;;23.75;9.70;;;;;;;3.85;100.00;102809.53;4996876;28;20380;-73
2022/01/15 03:18:53;;;;;;;24.95;10.68;;;;;;;3.90;100.00;102830.31;4978983;28;20053;-73
2022/01/15 03:21:19;;;;;;;27.20;11.00;;;;;;;3.79;100.00;102808.84;4978918;28;20041;-73
2022/01/15 03:23:45;;;;;;;27.50;11.60;;;;;;;3.58;100.00;102815.47;4996189;28;20086;-74
2022/01/15 03:26:13;;;;;;;33.33;12.68;;;;;;;3.53;100.00;102826.06;4979113;28;20029;-75
2022/01/15 03:28:40;;;;;;;35.40;13.18;;;;;;;3.66;100.00;102787.41;4963251;28;20026;-73
2022/01/15 03:31:09;;;;;;;31.08;13.15;;;;;;;3.87;100.00;102818.19;4978828;28;20033;-74
2022/01/15 03:33:35;;;;;;;36.88;13.35;;;;;;;4.06;100.00;102820.31;4978621;28;20037;-73
2022/01/15 03:36:01;;;;;;;36.67;14.60;;;;;;;3.99;100.00;102811.78;4995830;28;20030;-74
2022/01/15 03:38:26;;;;;;;37.78;14.93;;;;;;;4.09;100.00;102794.97;4962353;28;20042;-74
2022/01/15 03:40:54;;;;;;;39.30;14.65;;;;;;;3.74;100.00;102756.69;4995551;28;20022;-74
2022/01/15 03:43:19;;;;;;;36.97;14.80;;;;;;;3.82;100.00;102795.72;4978348;28;20128;-74
2022/01/15 03:45:45;;;;;;;46.30;17.20;;;;;;;4.07;100.00;102798.53;4995715;28;20046;-74
2022/01/15 03:48:12;;;;;;;42.35;16.35;;;;;;;4.05;100.00;102788.09;4994262;28;20364;-74
2022/01/15 03:50:38;;;;;;;47.08;17.33;;;;;;;4.00;100.00;102797.81;4978232;28;20389;-74
2022/01/15 03:53:06;;;;;;;46.20;17.63;;;;;;;4.09;100.00;102801.94;4978480;28;20026;-73
2022/01/15 03:55:31;;;;;;;44.72;16.38;;;;;;;4.10;100.00;102795.81;4978711;28;20100;-74
2022/01/15 03:57:59;;;;;;;45.33;16.88;;;;;;;3.74;100.00;102757.53;4963113;28;20037;-75
2022/01/15 04:00:26;;;;;;;46.20;18.27;;;;;;;3.99;100.00;102772.56;4977993;28;20030;-76
2022/01/15 04:02:54;;;;;;;52.63;19.35;;;;;;;4.12;100.00;102773.94;4993416;28;20042;-74
2022/01/15 04:05:21;;;;;;;51.95;18.15;;;;;;;4.00;100.00;102768.19;4978679;28;20526;-73
2022/01/15 04:07:49;;;;;;;51.45;18.48;;;;;;;3.95;100.00;102773.53;4978074;28;20030;-73
2022/01/15 04:10:16;;;;;;;50.10;17.98;;;;;;;3.35;100.00;102708.06;4997262;28;20022;-73
2022/01/15 04:12:43;;;;;;;46.97;16.75;;;;;;;3.78;100.00;102802.75;4963909;28;20026;-74
2022/01/15 04:15:09;;;;;;;42.30;16.23;;;;;;;3.90;100.00;102784.13;4983249;28;20026;-73
2022/01/15 04:17:35;;;;;;;39.47;15.68;;;;;;;3.96;100.00;102783.97;5000552;28;20018;-74
2022/01/15 04:20:03;;;;;;;42.47;15.95;;;;;;;3.79;100.00;102783.56;4997972;28;20392;-74
2022/01/15 04:22:29;;;;;;;39.53;14.52;;;;;;;4.02;100.00;102788.19;4963259;28;20382;-74
2022/01/15 04:24:57;;;;;;;35.08;13.32;;;;;;;3.60;100.00;102759.69;4978100;28;20226;-74
2022/01/15 04:27:23;;;;;;;41.58;15.13;;;;;;;3.37;100.00;102759.44;4995213;28;20522;-74
2022/01/15 04:29:49;;;;;;;41.90;15.13;;;;;;;2.99;100.00;102733.34;4978489;28;20101;-74
2022/01/15 04:32:16;;;;;;;39.30;14.75;;;;;;;3.44;100.00;102735.72;4995885;28;20468;-73
2022/01/15 04:34:41;;;;;;;38.67;14.45;;;;;;;3.29;100.00;102736.09;4977525;28;20033;-74
2022/01/15 04:37:13;;;;;;;41.90;15.65;;;;;;;3.44;100.00;102789.72;4978332;28;20030;-73
2022/01/15 04:39:39;;;;;;;46.35;17.00;;;;;;;3.25;100.00;102747.53;4962125;28;20029;-74
2022/01/15 04:42:05;;;;;;;43.10;15.77;;;;;;;3.74;100.00;102782.81;4978837;28;20085;-74
2022/01/15 04:44:30;;;;;;;47.35;18.15;;;;;;;3.13;100.00;102710.41;4996003;28;20031;-74
2022/01/15 04:46:56;;;;;;;43.20;15.75;;;;;;;3.29;100.00;102749.16;4982015;28;20385;-75
2022/01/15 04:49:22;;;;;;;42.50;15.48;;;;;;;3.31;100.00;102771.72;5003630;28;20018;-75
2022/01/15 04:51:47;;;;;;;41.88;15.88;;;;;;;2.75;100.00;102768.72;5003247;28;20473;-74
2022/01/15 04:54:13;;;;;;;41.95;15.30;;;;;;;3.10;100.00;102739.16;4997161;28;20380;-73
2022/01/15 04:56:59;;;;;;;43.00;15.50;;;;;;;3.31;100.00;102727.31;4997026;28;20042;-74
2022/01/15 04:59:24;;;;;;;45.25;15.63;;;;;;;3.42;100.00;102747.94;4995913;28;20053;-73
2022/01/15 05:01:50;;;;;;;45.22;16.23;;;;;;;3.65;100.00;102756.94;4995702;28;20116;-74
2022/01/15 05:04:16;;;;;;;40.55;14.40;;;;;;;3.68;100.00;102739.44;4992223;28;20061;-73
2022/01/15 05:06:42;;;;;;;37.60;15.13;;;;;;;3.61;100.00;102734.41;5013427;28;20468;-73
2022/01/15 05:09:07;;;;;;;40.25;14.77;;;;;;;2.64;100.00;102688.09;5014982;28;20052;-73
2022/01/15 05:14:19;;;;;;;42.13;13.98;;;;;;;3.32;100.00;102741.25;4983152;28;20034;-73
2022/01/15 05:16:45;;;;;;;40.60;13.77;;;;;;;3.12;100.00;102732.16;4997531;28;20026;-74
2022/01/15 05:19:11;;;;;;;40.38;14.57;;;;;;;3.23;100.00;102726.69;4996936;28;20056;-73
2022/01/15 05:21:37;;;;;;;45.10;15.55;;;;;;;3.00;100.00;102706.38;4996933;28;20065;-73
2022/01/15 05:24:03;;;;;;;40.72;14.00;;;;;;;3.30;100.00;102696.06;5013463;28;20153;-73
2022/01/15 05:26:29;;;;;;;43.30;15.25;;;;;;;3.14;100.00;102700.81;4979634;28;20089;-74
2022/01/15 05:28:56;;;;;;;41.25;15.07;;;;;;;2.98;100.00;102697.72;4995981;28;20104;-74
2022/01/15 05:31:24;;;;;;;41.13;14.80;;;;;;;2.58;100.00;102662.16;4995423;28;20017;-74
2022/01/15 05:33:50;;;;;;;39.38;14.10;;;;;;;2.55;100.00;102667.44;4995298;28;20407;-74
2022/01/15 05:36:16;;;;;;;38.00;13.50;;;;;;;3.11;100.00;102703.47;4995751;28;20030;-74
2022/01/15 05:38:42;;;;;;;37.88;13.85;;;;;;;3.01;100.00;102683.75;5012223;28;20080;-73
2022/01/15 05:41:07;;;;;;;41.97;14.18;;;;;;;3.35;100.00;102708.06;5012286;28;20021;-74
2022/01/15 05:43:33;;;;;;;43.15;14.38;;;;;;;3.16;100.00;102654.66;4995603;28;20022;-73
2022/01/15 05:45:59;;;;;;;37.30;13.95;;;;;;;3.09;100.00;102648.72;5013392;28;20030;-73
2022/01/15 05:48:24;;;;;;;35.63;13.32;;;;;;;3.33;100.00;102680.28;4981793;28;20025;-73
2022/01/15 05:50:51;;;;;;;38.85;13.70;;;;;;;2.81;100.00;102674.63;4999931;28;20034;-73
2022/01/15 05:53:17;;;;;;;38.08;13.98;;;;;;;3.01;100.00;102655.88;4999567;28;20030;-73
2022/01/15 05:55:45;;;;;;;38.38;12.80;;;;;;;2.73;100.00;102655.72;4999933;28;20109;-73
2022/01/15 05:58:11;;;;;;;33.45;12.85;;;;;;;2.71;100.00;102665.34;4999248;28;20448;-74
2022/01/15 06:00:37;;;;;;;35.85;12.10;;;;;;;2.97;100.00;102658.59;5017040;28;20056;-72
2022/01/15 06:03:03;;;;;;;34.53;11.82;;;;;;;3.04;100.00;102692.34;5016886;28;20395;-73
2022/01/15 06:05:28;;;;;;;40.20;12.35;;;;;;;2.70;100.00;102682.75;5017211;28;20026;-78
2022/01/15 06:07:55;;;;;;;31.30;11.70;;;;;;;2.74;100.00;102660.03;5017721;28;20092;-79
2022/01/15 06:10:21;;;;;;;29.45;11.77;;;;;;;2.43;100.00;102631.22;5020109;28;20140;-77
2022/01/15 06:12:50;;;;;;;34.58;11.05;;;;;;;2.63;100.00;102655.06;4970277;28;20448;-79
2022/01/15 06:15:18;;;;;;;36.25;12.43;;;;;;;2.62;100.00;102616.00;5016574;28;20052;-81
2022/01/15 06:17:44;;;;;;;36.75;12.68;;;;;;;2.46;100.00;102637.22;4979567;28;20038;-78
2022/01/15 06:20:12;;;;;;;38.55;12.48;;;;;;;2.58;100.00;102627.41;4985064;28;20026;-80
2022/01/15 06:22:41;;;;;;;37.47;13.60;;;;;;;2.79;100.00;102660.78;4984175;28;20026;-81
2022/01/15 06:25:08;;;;;;;37.50;13.45;;;;;;;2.79;100.00;102642.50;4985622;28;20445;-81
2022/01/15 06:27:36;;;;;;;34.97;12.10;;;;;;;2.50;100.00;102614.56;4986303;28;20034;-79
2022/01/15 06:30:07;;;;;;;47.85;12.45;;;;;;;2.42;100.00;102664.25;5007964;28;20098;-79
2022/01/15 06:32:36;;;;;;;40.28;13.52;;;;;;;2.63;100.00;102631.59;5020141;23;20089;-79
2022/01/15 06:35:08;;;;;;;37.53;12.13;;;;;;;3.04;100.00;102673.22;4986582;28;20043;-78
2022/01/15 06:37:37;;;;;;;35.30;12.30;;;;;;;2.33;100.00;102607.09;4991042;28;20037;-79
2022/01/15 06:40:07;;;;;;;39.80;12.48;;;;;;;2.42;100.00;102622.53;4992183;28;20085;-78
2022/01/15 06:42:35;;;;;;;34.70;11.32;;;;;;;2.49;100.00;102644.13;4995211;28;20480;-79
2022/01/15 06:45:02;;;;;;;34.10;11.00;;;;;;;2.21;100.00;102587.41;5009162;28;20038;-77
2022/01/15 06:47:28;;;;;;;41.10;11.75;;;;;;;2.61;100.00;102622.97;5000956;28;20045;-79
2022/01/15 06:49:53;;;;;;;41.70;12.00;;;;;;;2.66;100.00;102659.38;4987031;28;20027;-79
2022/01/15 06:52:21;;;;;;;37.60;12.93;;;;;;;2.60;100.00;102571.69;4999836;28;20037;-79
2022/01/15 06:54:47;;;;;;;36.00;11.75;;;;;;;2.60;100.00;102618.63;4985718;28;20492;-80
2022/01/15 06:57:13;;;;;;;34.67;11.98;;;;;;;2.60;100.00;102576.91;5006311;28;20416;-78
2022/01/15 06:59:38;;;;;;;34.40;11.10;;;;;;;2.14;100.00;102598.88;5007996;28;20030;-78
2022/01/15 07:02:10;;;;;;;55.60;11.55;;;;;;;1.65;100.00;102629.41;5003742;28;20027;-78
2022/01/15 07:04:48;;;;;;;36.60;11.10;;;;;;;1.94;100.00;102601.06;5011714;28;20014;-79
2022/01/15 07:07:14;;;;;;;41.80;12.00;;;;;;;2.17;100.00;102580.53;5003031;28;20031;-77
2022/01/15 07:09:40;;;;;;;39.10;12.70;;;;;;;2.13;100.00;102598.91;5015416;28;20022;-80
2022/01/15 07:12:06;;;;;;;35.08;11.48;;;;;;;2.63;100.00;102649.00;4997514;28;20030;-79
2022/01/15 07:14:43;;;;;;;36.22;13.00;;;;;;;2.48;100.00;102651.09;5022889;28;20094;-80
2022/01/15 07:17:19;;;;;;;33.55;12.25;;;;;;;2.24;100.00;102579.50;4982009;28;20030;-80
2022/01/15 07:19:51;;;;;;;48.00;12.80;;;;;;;2.43;100.00;102618.16;4968837;28;20043;-79
2022/01/15 07:22:19;;;;;;;36.92;12.55;;;;;;;2.88;100.00;102642.31;4992449;28;20050;-79
2022/01/15 07:24:45;;;;;;;37.75;12.75;;;;;;;2.83;100.00;102602.41;4992013;28;20027;-80
2022/01/15 07:27:12;;;;;;;36.65;12.40;;;;;;;2.84;100.00;102631.94;5007336;28;20050;-80
2022/01/15 07:29:39;;;;;;;34.25;11.80;;;;;;;2.55;100.00;102610.06;4974326;28;20027;-80
2022/01/15 07:32:11;;;;;;;52.90;12.52;;;;;;;2.46;100.00;102621.56;4971644;28;20047;-80
2022/01/15 07:34:37;;;;;;;46.42;12.13;;;;;;;2.10;100.00;102602.44;4990041;28;20070;-80
2022/01/15 07:37:05;;;;;;;59.20;14.27;;;;;;;1.38;100.00;102563.13;4973479;28;20118;-80
2022/01/15 07:39:35;;;;;;;36.53;12.73;;;;;;;2.14;100.00;102624.09;5003875;28;20030;-80
2022/01/15 07:42:00;;;;;;;38.95;12.40;;;;;;;2.50;100.00;102636.25;4967996;28;20090;-80
2022/01/15 07:44:28;;;;;;;35.28;12.73;;;;;;;2.47;100.00;102614.59;4967104;28;20081;-79
2022/01/15 07:46:54;;;;;;;49.85;11.63;;;;;;;2.14;100.00;102601.47;4984829;28;20027;-80
2022/01/15 07:49:21;;;;;;;43.35;13.18;;;;;;;1.98;100.00;102614.00;4966042;28;20030;-80
2022/01/15 07:51:52;;;;;;;35.85;12.30;;;;;;;2.12;100.00;102577.19;4983789;28;20099;-79
2022/01/15 07:54:17;;;;;;;32.35;11.73;;;;;;;2.14;100.00;102580.63;4992382;28;20026;-80
2022/01/15 07:56:44;;;;;;;31.85;11.43;;;;;;;2.46;100.00;102645.03;5006448;28;20046;-81
2022/01/15 07:59:11;;;;;;;33.70;11.50;;;;;;;2.40;100.00;102639.97;5007178;28;20106;-80
2022/01/15 08:01:37;;;;;;;32.50;11.75;;;;;;;2.56;100.00;102637.00;4992222;28;20090;-78
2022/01/15 08:04:04;;;;;;;29.20;11.07;;;;;;;2.50;100.00;102611.94;4989967;28;20038;-81
2022/01/15 08:06:33;;;;;;;28.73;12.05;;;;;;;2.24;100.00;102615.16;4985685;28;20038;-79
2022/01/15 08:09:02;;;;;;;54.30;12.77;;;;;;;2.15;100.00;102617.97;4992300;28;20035;-80
2022/01/15 08:11:35;;;;;;;28.48;11.38;;;;;;;2.32;100.00;102623.66;5008847;28;20030;-80
2022/01/15 08:14:02;;;;;;;45.13;11.35;;;;;;;1.54;100.00;102633.97;5005071;28;20041;-76
2022/01/15 08:16:40;;;;;;;30.80;11.73;;;;;;;2.12;100.00;102651.91;4999572;28;20048;-83
2022/01/15 08:19:09;;;;;;;32.53;11.30;;;;;;;1.66;100.00;102583.44;5000260;28;20389;-79
2022/01/15 08:24:59;;;;;;;50.70;17.75;;;;;;;1.80;100.00;102594.41;4971634;28;20039;-80
2022/01/15 08:27:28;;;;;;;33.10;13.10;;;;;;;2.41;100.00;102666.91;4944248;29;20039;-78
2022/01/15 08:30:13;;;;;;;32.03;12.75;;;;;;;2.28;100.00;102609.81;4952160;29;20126;-79
2022/01/15 08:32:50;;;;;;;36.80;13.95;;;;;;;2.40;100.00;102670.41;4949720;29;20411;-80
2022/01/15 08:35:17;;;;;;;36.10;14.07;;;;;;;2.07;100.00;102605.13;4931447;29;20043;-78
2022/01/15 08:37:44;;;;;;;39.20;13.82;;;;;;;2.11;100.00;102585.88;4953332;29;20027;-81
2022/01/15 08:40:20;;;;;;;35.50;13.80;;;;;;;2.36;100.00;102617.44;4955640;29;20023;-82
2022/01/15 08:43:25;;;;;;;43.72;13.07;;;;;;;2.53;100.00;102640.53;4939073;29;20150;-81
2022/01/15 08:46:00;;;;;;;32.70;13.00;;;;;;;2.34;100.00;102605.34;4935768;29;20028;-82
2022/01/15 08:49:00;;;;;;;;;;;;;;;;;;;;;
2022/01/15 08:51:38;;;;;;;34.08;12.95;;;;;;;2.65;100.00;102634.16;4941848;29;20169;-77
2022/01/15 08:54:06;;;;;;;39.78;14.45;;;;;;;2.49;100.00;102634.53;4937383;29;20036;-75
2022/01/15 08:56:36;;;;;;;37.80;13.48;;;;;;;2.30;100.00;102648.91;4938266;29;20043;-77
2022/01/15 08:59:08;;;;;;;36.05;13.30;;;;;;;1.53;100.00;102567.19;4924315;29;20465;-79
2022/01/15 09:01:36;;;;;;;40.85;14.43;;;;;;;1.70;100.00;102594.63;4972624;28;20034;-78
2022/01/15 09:04:03;;;;;;;45.70;13.73;;;;;;;1.65;100.00;102568.66;5001040;28;20049;-77
2022/01/15 09:06:40;;;;;;;47.13;18.27;;;;;;;1.90;100.00;102584.63;5009674;28;20354;-80
2022/01/15 09:09:12;;;;;;;35.58;13.32;;;;;;;2.44;100.00;102623.34;5010089;28;20056;-80
2022/01/15 09:11:42;;;;;;;35.70;13.90;;;;;;;1.96;100.00;102552.38;4997499;28;20117;-80
2022/01/15 09:14:11;;;;;;;46.50;17.88;;;;;;;1.79;100.00;102558.81;4989303;28;20027;-79
2022/01/15 09:16:43;;;;;;;47.97;16.25;;;;;;;1.94;100.00;102594.09;4989092;28;20054;-81
2022/01/15 09:20:06;;;;;;;35.38;14.55;;;;;;;2.13;100.00;102620.59;5008696;28;20065;-80
2022/01/15 09:22:39;;;;;;;34.53;14.45;;;;;;;1.44;100.00;102539.59;4979177;28;20088;-79
2022/01/15 09:25:05;;;;;;;51.60;15.10;;;;;;;1.48;100.00;102596.78;4988646;28;20026;-77
2022/01/15 09:30:16;;;;;;;43.05;15.70;;;;;;;1.58;100.00;102598.34;5017282;28;20054;-78
2022/01/15 09:32:55;;;;;;;39.42;15.38;;;;;;;1.98;100.00;102632.22;5011710;28;20046;-79
2022/01/15 09:35:29;;;;;;;39.70;14.85;;;;;;;1.61;100.00;102591.34;5004063;28;20471;-76
2022/01/15 09:37:55;;;;;;;39.00;15.95;;;;;;;1.48;100.00;102553.41;4971741;28;20035;-76
2022/01/15 09:40:24;;;;;;;41.58;15.63;;;;;;;1.83;100.00;102575.25;4991521;28;20042;-78
2022/01/15 09:42:54;;;;;;;70.32;27.88;;;;;;;1.55;100.00;102541.97;4966041;28;20035;-81
2022/01/15 09:45:22;;;;;;;46.55;17.02;;;;;;;2.18;100.00;102613.56;4961199;28;20358;-77
2022/01/15 09:48:00;;;;;;;64.78;24.45;;;;;;;2.16;100.00;102576.25;4990518;28;20125;-79
2022/01/15 09:50:34;;;;;;;41.10;15.73;;;;;;;1.65;100.00;102546.09;5025324;28;20022;-78
2022/01/15 09:53:03;;;;;;;43.15;15.30;;;;;;;2.06;100.00;102561.69;5016426;28;20029;-78
2022/01/15 09:55:32;;;;;;;38.80;15.70;;;;;;;1.92;100.00;102588.06;5008393;28;20097;-78
2022/01/15 09:58:27;;;;;;;40.13;15.23;;;;;;;1.97;100.00;102521.06;4988270;28;20044;-82
2022/01/15 10:01:08;;;;;;;41.65;14.93;;;;;;;2.52;100.00;102610.13;4999211;28;20035;-85
2022/01/15 10:03:34;;;;;;;39.88;14.63;;;;;;;2.10;100.00;102568.56;5018448;28;20030;-82
2022/01/15 10:06:04;;;;;;;36.33;14.38;;;;;;;2.47;100.00;102588.53;5008197;28;20492;-79
2022/01/15 10:08:40;;;;;;;55.30;21.58;;;;;;;2.37;100.00;102603.53;4964398;28;20045;-77
2022/01/15 10:11:11;;;;;;;42.17;18.15;;;;;;;2.59;100.00;102585.63;4996092;28;20045;-76
2022/01/15 10:13:48;;;;;;;125.65;52.58;;;;;;;2.50;100.00;102544.13;4978968;28;20145;-79
2022/01/15 10:16:17;;;;;;;34.30;14.40;;;;;;;2.34;100.00;102540.19;4989932;28;20046;-79
2022/01/15 10:18:48;;;;;;;40.40;15.15;;;;;;;2.67;100.00;102588.03;4962330;28;20065;-80
2022/01/15 10:21:57;;;;;;;44.30;17.90;;;;;;;2.29;100.00;102595.91;4970859;28;20078;-83
2022/01/15 10:24:58;;;;;;;42.17;16.42;;;;;;;2.81;100.00;102604.19;5002062;28;20038;-80
2022/01/15 10:27:36;;;;;;;45.75;17.83;;;;;;;2.41;100.00;102537.41;4989708;28;20488;-80
2022/01/15 10:30:18;;;;;;;42.78;16.17;;;;;;;2.80;100.00;102586.00;4979446;28;20030;-79
2022/01/15 10:33:02;;;;;;;36.75;14.45;;;;;;;2.46;100.00;102597.25;4981398;28;20106;-80
2022/01/15 10:35:43;;;;;;;36.30;14.10;;;;;;;2.77;100.00;102547.78;5003696;28;20031;-80
2022/01/15 10:38:14;;;;;;;37.85;14.40;;;;;;;2.75;100.00;102586.09;4999983;28;20047;-80
2022/01/15 10:40:53;;;;;;;36.78;14.13;;;;;;;2.49;100.00;102521.56;4982296;28;20137;-79
2022/01/15 10:43:20;;;;;;;44.22;14.07;;;;;;;2.95;100.00;102589.94;5005070;28;20042;-80
2022/01/15 10:45:50;;;;;;;38.72;14.38;;;;;;;3.01;100.00;102581.94;5010797;28;20030;-79
2022/01/15 10:48:31;;;;;;;37.60;14.48;;;;;;;3.05;100.00;102586.19;5012293;28;20041;-80
2022/01/15 10:51:05;;;;;;;40.13;15.35;;;;;;;2.77;100.00;102506.06;5015983;28;20061;-79
2022/01/15 10:53:37;;;;;;;42.90;15.60;;;;;;;3.00;100.00;102575.88;5015745;28;20041;-79
2022/01/15 10:56:04;;;;;;;38.67;15.45;;;;;;;2.84;100.00;102538.03;4999873;28;20038;-79
2022/01/15 10:58:34;;;;;;;38.80;14.93;;;;;;;2.93;100.00;102558.69;4981081;28;20089;-79
2022/01/15 11:01:03;;;;;;;41.60;16.58;;;;;;;3.33;100.00;102565.41;4996364;28;20047;-80
2022/01/15 11:03:40;;;;;;;39.95;15.65;;;;;;;2.99;100.00;102508.06;5011660;28;20022;-79
2022/01/15 11:06:20;;;;;;;41.80;15.77;;;;;;;2.63;100.00;102513.38;5006262;28;20050;-80
2022/01/15 11:08:51;;;;;;;42.83;16.17;;;;;;;2.97;100.00;102482.00;5001180;28;20026;-80
2022/01/15 11:11:23;;;;;;;38.95;15.35;;;;;;;3.09;100.00;102552.16;5000187;28;20121;-79
2022/01/15 11:13:52;;;;;;;39.53;14.63;;;;;;;2.78;100.00;102484.28;4985749;28;20127;-80
2022/01/15 11:16:20;;;;;;;45.92;15.63;;;;;;;2.26;100.00;102473.44;4974150;28;20052;-80
2022/01/15 11:18:49;;;;;;;40.00;15.25;;;;;;;2.99;100.00;102508.91;5011671;28;20541;-80
2022/01/15 11:24:04;;;;;;;54.33;20.88;;;;;;;2.69;100.00;102500.19;5128237;23;20110;-81
2022/01/15 11:26:54;;;;;;;53.38;16.65;;;;;;;2.74;100.00;102540.03;4988446;28;20026;-81
2022/01/15 11:29:31;;;;;;;44.40;15.10;;;;;;;2.64;100.00;102483.78;4980564;28;20050;-81
2022/01/15 11:32:02;;;;;;;49.95;18.25;;;;;;;2.44;100.00;102461.69;4982369;28;20023;-78
2022/01/15 11:34:39;;;;;;;50.60;17.08;;;;;;;2.48;100.00;102504.22;5085689;23;20042;-84
2022/01/15 11:37:18;;;;;;;46.80;16.27;;;;;;;2.32;100.00;102506.34;4990381;28;20049;-78
2022/01/15 11:39:45;;;;;;;53.22;16.98;;;;;;;2.11;100.00;102531.16;4982740;28;20440;-78
2022/01/15 11:42:35;;;;;;;67.72;23.35;;;;;;;2.57;100.00;102519.63;4971376;28;20038;-80
2022/01/15 11:45:04;;;;;;;60.42;19.08;;;;;;;2.00;100.00;102509.72;4952776;28;20030;-76
2022/01/15 11:47:34;;;;;;;56.00;17.80;;;;;;;2.32;100.00;102519.38;4995098;28;20026;-76
2022/01/15 11:50:20;;;;;;;60.20;20.10;;;;;;;1.68;100.00;102454.00;4979158;28;20061;-81
2022/01/15 11:52:46;;;;;;;58.55;18.80;;;;;;;2.55;100.00;102520.56;4963975;28;20109;-78
2022/01/15 11:55:18;;;;;;;51.53;17.95;;;;;;;2.43;100.00;102522.56;4980027;28;20077;-76
2022/01/15 11:57:47;;;;;;;60.45;19.20;;;;;;;2.54;100.00;102514.47;4979155;28;20019;-79
2022/01/15 12:00:22;;;;;;;64.95;21.83;;;;;;;2.74;100.00;102502.66;4963042;28;20487;-78
2022/01/15 12:03:09;;;;;;;65.18;22.60;;;;;;;2.69;100.00;102467.13;4958526;28;20445;-77